createdAt,value
2018-07-07T05:02:58.475Z,16.70
2018-07-07T05:08:01.797Z,16.72
2018-07-07T05:13:05.119Z,16.84
2018-07-07T05:18:08.447Z,17.00
2018-07-07T05:23:11.796Z,17.07
2018-07-07T05:28:15.890Z,17.26
2018-07-07T05:33:19.223Z,17.32
2018-07-07T05:38:22.554Z,17.32
2018-07-07T05:43:26.674Z,17.42
2018-07-07T05:48:31.692Z,17.46
2018-07-07T05:53:35.024Z,17.51
2018-07-07T05:58:38.353Z,17.64
2018-07-07T06:03:42.449Z,17.84
2018-07-07T06:08:45.774Z,18.26
2018-07-07T06:13:49.134Z,18.71
2018-07-07T06:18:59.251Z,18.94
2018-07-07T06:24:02.743Z,18.95
2018-07-07T06:29:18.570Z,19.08
2018-07-07T06:34:21.898Z,19.39
2018-07-07T06:39:25.265Z,19.36
2018-07-07T06:44:28.635Z,19.53
2018-07-07T06:49:31.999Z,19.14
2018-07-07T06:54:35.340Z,19.37
2018-07-07T06:59:38.729Z,19.37
2018-07-07T07:04:42.044Z,19.42
2018-07-07T07:09:45.452Z,19.61
2018-07-07T07:14:49.628Z,19.80
2018-07-07T07:19:54.382Z,19.77
2018-07-07T07:24:57.889Z,19.82
2018-07-07T07:30:18.335Z,19.68
2018-07-07T07:35:22.431Z,19.85
2018-07-07T07:40:25.834Z,19.94
2018-07-07T07:45:29.959Z,19.99
2018-07-07T07:50:34.314Z,20.20
2018-07-07T07:55:38.692Z,20.07
2018-07-07T08:01:13.778Z,20.13
2018-07-07T08:06:17.107Z,20.36
2018-07-07T08:11:20.443Z,20.28
2018-07-07T08:16:23.781Z,20.69
2018-07-07T08:21:27.115Z,20.61
2018-07-07T08:26:30.449Z,20.61
2018-07-07T08:31:33.782Z,20.53
2018-07-07T08:36:37.131Z,20.85
2018-07-07T08:41:40.484Z,20.91
2018-07-07T08:46:43.806Z,20.81
2018-07-07T08:51:47.139Z,20.70
2018-07-07T08:56:50.485Z,21.23
2018-07-07T09:01:53.810Z,21.13
2018-07-07T09:06:57.138Z,21.27
2018-07-07T09:12:00.471Z,21.32
2018-07-07T09:17:03.793Z,21.20
2018-07-07T09:22:07.126Z,21.34
2018-07-07T09:27:11.223Z,21.37
2018-07-07T09:32:14.555Z,21.44
2018-07-07T09:37:17.891Z,21.74
2018-07-07T09:42:21.227Z,21.39
2018-07-07T09:47:34.782Z,21.48
2018-07-07T09:52:38.110Z,21.87
2018-07-07T09:57:41.443Z,21.74
2018-07-07T10:02:44.795Z,21.48
2018-07-07T10:07:48.163Z,21.70
2018-07-07T10:12:51.486Z,21.89
2018-07-07T10:17:54.810Z,22.03
2018-07-07T10:22:58.155Z,21.92
2018-07-07T10:28:01.484Z,21.83
2018-07-07T10:33:04.810Z,22.06
2018-07-07T10:38:08.585Z,22.40
2018-07-07T10:43:12.687Z,22.16
2018-07-07T10:48:16.022Z,21.93
2018-07-07T10:53:19.356Z,22.17
2018-07-07T10:58:22.694Z,22.53
2018-07-07T11:03:26.021Z,22.68
2018-07-07T11:08:29.354Z,22.68
2018-07-07T11:13:32.692Z,22.71
2018-07-07T11:18:36.778Z,22.56
2018-07-07T11:23:40.106Z,22.85
2018-07-07T11:28:43.445Z,22.81
2018-07-07T11:33:47.541Z,22.88
2018-07-07T11:38:50.874Z,23.20
2018-07-07T11:43:54.205Z,22.83
2018-07-07T11:48:58.294Z,22.96
2018-07-07T11:54:01.627Z,23.13
2018-07-07T11:59:15.644Z,23.63
2018-07-07T12:04:20.250Z,24.53
2018-07-07T12:09:25.575Z,24.24
2018-07-07T12:14:28.911Z,24.54
2018-07-07T12:19:32.238Z,25.28
2018-07-07T12:24:36.327Z,24.43
2018-07-07T12:29:39.695Z,23.98
2018-07-07T12:34:43.047Z,23.95
2018-07-07T12:39:51.114Z,24.04
2018-07-07T12:44:55.415Z,24.18
2018-07-07T12:50:00.702Z,24.20
2018-07-07T12:55:04.027Z,24.58
2018-07-07T13:00:09.051Z,24.55
2018-07-07T13:05:12.543Z,24.46
2018-07-07T13:10:19.095Z,24.39
2018-07-07T13:15:22.464Z,24.58
2018-07-07T13:20:43.664Z,24.78
2018-07-07T13:25:47.712Z,24.92
2018-07-07T13:30:51.154Z,24.92
2018-07-07T13:35:54.478Z,24.78
2018-07-07T13:40:58.928Z,24.95
2018-07-07T13:46:04.324Z,25.01
2018-07-07T13:51:08.799Z,25.16
2018-07-07T13:56:13.558Z,24.85
2018-07-07T14:01:17.954Z,24.75
2018-07-07T14:06:21.500Z,24.39
2018-07-07T14:11:27.643Z,24.60
2018-07-07T14:16:30.967Z,24.88
2018-07-07T14:21:34.294Z,24.98
2018-07-07T14:26:37.624Z,26.03
2018-07-07T14:31:40.979Z,26.10
2018-07-07T14:36:44.312Z,25.97
2018-07-07T14:41:47.653Z,25.65
2018-07-07T14:46:50.989Z,24.97
2018-07-07T14:51:55.089Z,25.31
2018-07-07T14:56:58.503Z,26.11
2018-07-07T15:02:01.837Z,26.51
2018-07-07T15:07:05.942Z,26.37
2018-07-07T15:12:09.269Z,26.76
2018-07-07T15:17:12.615Z,26.90
2018-07-07T15:22:15.946Z,25.86
2018-07-07T15:27:19.274Z,25.85
2018-07-07T15:32:22.711Z,26.98
2018-07-07T15:37:26.062Z,26.21
2018-07-07T15:42:30.147Z,25.49
2018-07-07T15:47:33.484Z,26.11
2018-07-07T15:52:36.809Z,25.20
2018-07-07T15:57:40.177Z,25.03
2018-07-07T16:02:43.529Z,24.89
2018-07-07T16:07:46.878Z,26.01
2018-07-07T16:12:50.211Z,25.70
2018-07-07T16:17:53.563Z,25.05
2018-07-07T16:22:56.890Z,25.45
2018-07-07T16:28:00.219Z,25.70
2018-07-07T16:33:03.549Z,25.50
2018-07-07T16:38:06.874Z,26.11
2018-07-07T16:43:10.195Z,25.43
2018-07-07T16:48:14.295Z,26.57
2018-07-07T16:53:17.642Z,27.10
2018-07-07T16:58:20.983Z,26.60
2018-07-07T17:03:24.312Z,25.74
2018-07-07T17:08:27.634Z,25.74
2018-07-07T17:13:30.976Z,25.80
2018-07-07T17:18:34.305Z,26.53
2018-07-07T17:23:38.451Z,27.06
2018-07-07T17:28:41.749Z,27.38
2018-07-07T17:33:45.091Z,28.08
2018-07-07T17:38:48.413Z,28.63
2018-07-07T17:43:51.751Z,27.17
2018-07-07T17:48:55.082Z,27.12
2018-07-07T17:53:58.415Z,27.03
2018-07-07T17:59:01.757Z,27.06
2018-07-07T18:04:05.177Z,26.89
2018-07-07T18:09:10.447Z,27.07
2018-07-07T18:14:13.782Z,26.75
2018-07-07T18:19:17.129Z,26.69
2018-07-07T18:24:20.451Z,27.19
2018-07-07T18:29:23.831Z,26.92
2018-07-07T18:34:27.210Z,26.91
2018-07-07T18:39:30.536Z,26.56
2018-07-07T18:44:33.885Z,26.61
2018-07-07T18:49:37.234Z,26.66
2018-07-07T18:54:40.558Z,26.21
2018-07-07T18:59:43.884Z,26.16
2018-07-07T19:04:47.223Z,25.85
2018-07-07T19:10:05.155Z,25.63
2018-07-07T19:15:08.575Z,25.49
2018-07-07T19:20:27.146Z,25.45
2018-07-07T19:31:00.740Z,25.54
2018-07-07T19:41:35.602Z,25.40
2018-07-07T19:46:44.872Z,25.16
2018-07-07T19:51:48.728Z,25.01
2018-07-07T19:56:52.073Z,24.91
2018-07-07T20:01:55.406Z,24.78
2018-07-07T20:06:58.733Z,24.63
2018-07-07T20:12:02.840Z,24.52
2018-07-07T20:17:06.162Z,24.34
2018-07-07T20:22:09.508Z,24.15
2018-07-07T20:27:12.860Z,23.96
2018-07-07T20:32:16.218Z,23.79
2018-07-07T20:37:20.307Z,23.64
2018-07-07T20:42:23.633Z,23.52
2018-07-07T20:47:26.958Z,23.42
2018-07-07T20:52:30.298Z,23.35
2018-07-07T20:57:33.620Z,23.23
2018-07-07T21:02:37.722Z,23.13
2018-07-07T21:07:41.068Z,23.00
2018-07-07T21:12:44.404Z,22.86
2018-07-07T21:17:47.791Z,22.73
2018-07-07T21:22:51.083Z,22.66
2018-07-07T21:27:55.170Z,22.57
2018-07-07T21:32:58.495Z,22.50
2018-07-07T21:38:01.828Z,22.39
2018-07-07T21:43:05.155Z,22.29
2018-07-07T21:48:09.245Z,22.24
2018-07-07T21:53:12.577Z,22.10
2018-07-07T21:58:15.906Z,21.99
2018-07-07T22:08:47.944Z,21.90
2018-07-07T22:13:54.813Z,21.77
2018-07-07T22:18:58.941Z,21.69
2018-07-07T22:24:02.276Z,21.59
2018-07-07T22:29:07.993Z,21.47
